Terminal Aerodrome Forecast
Issued by NWS

Home | Current Version | Previous Version | Text Only | Print | Product List | Glossary On
Versions: 1 2 3 4 5 6 7 8 9 10 11 12
000
FTUS46 KOTX 251722
TAFCOE
TAF
KCOE 251722Z 2518/2618 03008KT P6SM FEW100 FEW200
     FM260600 05005KT P6SM FEW070 SCT200
     FM261200 06011KT P6SM FEW070 FEW200
      AMD LTD TO CLD VIS AND WIND=

USA.gov is the U.S. government's official web portal to all federal, state and local government web resources and services.